createdAt,value
2022-12-29T00:00:04.400Z,0.00
2022-12-29T00:01:04.448Z,0.00
2022-12-29T00:02:04.401Z,0.00
2022-12-29T00:03:04.613Z,0.00
2022-12-29T00:04:04.420Z,0.00
2022-12-29T00:05:04.344Z,0.00
2022-12-29T00:06:04.337Z,0.00
2022-12-29T00:07:04.345Z,0.00
2022-12-29T00:08:04.346Z,0.00
2022-12-29T00:09:04.331Z,0.00
2022-12-29T00:10:04.291Z,0.00
2022-12-29T00:11:04.287Z,0.00
2022-12-29T00:12:04.264Z,0.00
2022-12-29T00:13:04.255Z,0.00
2022-12-29T00:14:04.293Z,0.00
2022-12-29T00:15:04.241Z,0.00
2022-12-29T00:16:04.309Z,0.00
2022-12-29T00:17:04.222Z,0.00
2022-12-29T00:18:04.205Z,0.00
2022-12-29T00:19:04.194Z,0.00
2022-12-29T00:20:04.411Z,0.00
2022-12-29T00:21:04.178Z,0.00
2022-12-29T00:22:04.153Z,0.00
2022-12-29T00:23:04.146Z,0.00
2022-12-29T00:24:04.134Z,0.00
2022-12-29T00:25:04.122Z,0.00
2022-12-29T00:26:04.141Z,0.00
2022-12-29T00:27:04.152Z,0.00
2022-12-29T00:28:07.490Z,0.00
2022-12-29T00:29:04.087Z,0.00
2022-12-29T00:30:04.069Z,0.00
2022-12-29T00:31:04.093Z,0.00
2022-12-29T00:32:04.085Z,0.00
2022-12-29T00:33:04.033Z,0.00
2022-12-29T00:34:04.025Z,0.00
2022-12-29T00:35:04.057Z,0.00
2022-12-29T00:36:04.011Z,0.00
2022-12-29T00:37:03.997Z,0.00
2022-12-29T00:38:04.003Z,0.00
2022-12-29T00:39:03.972Z,0.00
2022-12-29T00:40:03.961Z,0.00
2022-12-29T00:41:03.947Z,0.00
2022-12-29T00:42:03.946Z,0.00
2022-12-29T00:43:03.957Z,0.00
2022-12-29T00:44:03.925Z,0.00
2022-12-29T00:45:03.897Z,0.00
2022-12-29T00:46:03.888Z,0.00
2022-12-29T00:47:03.961Z,0.00
2022-12-29T00:48:03.865Z,0.00
2022-12-29T00:49:03.884Z,0.00
2022-12-29T00:50:03.845Z,0.00
2022-12-29T00:51:03.834Z,0.00
2022-12-29T00:52:03.830Z,0.00
2022-12-29T00:53:03.817Z,0.00
2022-12-29T00:54:03.808Z,0.00
2022-12-29T00:55:03.835Z,0.00
2022-12-29T00:56:03.780Z,0.00
2022-12-29T00:57:03.774Z,0.00
2022-12-29T00:58:03.751Z,0.00
2022-12-29T00:59:03.760Z,0.00
2022-12-29T01:00:03.787Z,0.00
2022-12-29T01:01:03.820Z,0.00
2022-12-29T01:02:03.873Z,0.00
2022-12-29T01:03:03.934Z,0.00
2022-12-29T01:04:04.698Z,0.00
2022-12-29T01:05:03.706Z,0.00
2022-12-29T01:06:03.678Z,0.00
2022-12-29T01:07:03.665Z,0.00
2022-12-29T01:08:03.652Z,0.00
2022-12-29T01:09:03.643Z,0.00
2022-12-29T01:10:03.681Z,0.00
2022-12-29T01:11:03.627Z,0.00
2022-12-29T01:12:03.618Z,0.00
2022-12-29T01:13:03.613Z,0.00
2022-12-29T01:14:03.609Z,0.00
2022-12-29T01:15:03.587Z,0.00
2022-12-29T01:16:03.643Z,0.00
2022-12-29T01:17:03.558Z,0.00
2022-12-29T01:18:03.532Z,0.00
2022-12-29T01:19:03.545Z,0.00
2022-12-29T01:20:03.516Z,0.00
2022-12-29T01:21:03.519Z,0.00
2022-12-29T01:22:03.700Z,0.00
2022-12-29T01:23:03.520Z,0.00
2022-12-29T01:24:03.474Z,0.00
2022-12-29T01:25:03.462Z,0.00
2022-12-29T01:26:03.450Z,0.00
2022-12-29T01:27:03.460Z,0.00
2022-12-29T01:28:03.473Z,0.00
2022-12-29T01:29:03.468Z,0.00
2022-12-29T01:30:03.426Z,0.00
2022-12-29T01:31:03.397Z,0.00
2022-12-29T01:32:03.472Z,0.00
2022-12-29T01:33:03.392Z,0.00
2022-12-29T01:34:03.399Z,0.00
2022-12-29T01:35:03.349Z,0.00
2022-12-29T01:36:03.367Z,0.00
2022-12-29T01:37:03.332Z,0.00
2022-12-29T01:38:03.320Z,0.00
2022-12-29T01:39:03.319Z,0.00
2022-12-29T01:40:03.317Z,0.00
2022-12-29T01:41:03.342Z,0.00
2022-12-29T01:42:03.266Z,0.00
2022-12-29T01:43:03.284Z,0.00
2022-12-29T01:44:03.253Z,0.00
2022-12-29T01:45:03.258Z,0.00
2022-12-29T01:46:03.417Z,0.00
2022-12-29T01:47:03.213Z,0.00
2022-12-29T01:48:03.229Z,0.00
2022-12-29T01:49:03.210Z,0.00
2022-12-29T01:50:03.192Z,0.00
2022-12-29T01:51:03.187Z,0.00
2022-12-29T01:52:03.183Z,0.00
2022-12-29T01:53:03.152Z,0.00
2022-12-29T01:54:03.133Z,0.00
2022-12-29T01:55:03.140Z,0.00
2022-12-29T01:56:03.113Z,0.00
2022-12-29T01:57:03.114Z,0.00
2022-12-29T01:58:03.137Z,0.00
2022-12-29T01:59:03.087Z,0.00
2022-12-29T02:00:03.067Z,0.00
2022-12-29T02:01:03.104Z,0.00
2022-12-29T02:02:03.135Z,0.00
2022-12-29T02:03:03.106Z,0.00
2022-12-29T02:04:03.054Z,0.00
2022-12-29T02:05:04.927Z,0.00
2022-12-29T02:06:03.007Z,0.00
2022-12-29T02:07:03.002Z,0.00
2022-12-29T02:08:02.994Z,0.00
2022-12-29T02:09:02.980Z,0.00
2022-12-29T02:10:02.993Z,0.00
2022-12-29T02:11:03.005Z,0.00
2022-12-29T02:12:02.950Z,0.00
2022-12-29T02:13:02.969Z,0.00
2022-12-29T02:14:03.844Z,0.00
2022-12-29T02:15:02.908Z,0.00
2022-12-29T02:16:02.967Z,0.00
2022-12-29T02:17:02.882Z,0.00
2022-12-29T02:18:02.887Z,0.00
2022-12-29T02:19:02.852Z,0.00
2022-12-29T02:20:02.847Z,0.00
2022-12-29T02:21:02.857Z,0.00
2022-12-29T02:22:02.829Z,0.00
2022-12-29T02:23:02.823Z,0.00
2022-12-29T02:24:03.072Z,0.00
2022-12-29T02:25:02.807Z,0.00
2022-12-29T02:26:02.810Z,0.00
2022-12-29T02:27:02.768Z,0.00
2022-12-29T02:28:02.755Z,0.00
2022-12-29T02:29:02.742Z,0.00
2022-12-29T02:30:02.753Z,0.00
2022-12-29T02:31:02.727Z,0.00
2022-12-29T02:32:02.741Z,0.00
2022-12-29T02:33:02.711Z,0.00
2022-12-29T02:34:02.683Z,0.00
2022-12-29T02:35:02.716Z,0.00
2022-12-29T02:36:02.689Z,0.00
2022-12-29T02:37:02.662Z,0.00
2022-12-29T02:38:02.650Z,0.00
2022-12-29T02:39:02.644Z,0.00
2022-12-29T02:40:02.629Z,0.00
2022-12-29T02:41:02.641Z,0.00
2022-12-29T02:42:02.625Z,0.00
2022-12-29T02:43:02.595Z,0.00
2022-12-29T02:44:02.587Z,0.00
2022-12-29T02:45:02.565Z,0.00
2022-12-29T02:46:02.680Z,0.00
2022-12-29T02:47:02.551Z,0.00
2022-12-29T02:48:02.545Z,0.00
2022-12-29T02:49:02.523Z,0.00
2022-12-29T02:50:02.513Z,0.00
2022-12-29T02:51:02.525Z,0.00
2022-12-29T02:52:02.515Z,0.00
2022-12-29T02:53:02.481Z,0.00
2022-12-29T02:54:02.500Z,0.00
2022-12-29T02:55:02.450Z,0.00
2022-12-29T02:56:02.445Z,0.00
2022-12-29T02:57:02.452Z,0.00
2022-12-29T02:58:02.422Z,0.00
2022-12-29T02:59:02.417Z,0.00
2022-12-29T03:00:02.418Z,0.00
2022-12-29T03:01:02.510Z,0.00
2022-12-29T03:02:02.539Z,0.00
2022-12-29T03:03:02.682Z,0.00
2022-12-29T03:04:02.362Z,0.00
2022-12-29T03:05:02.349Z,0.00
2022-12-29T03:06:02.344Z,0.00
2022-12-29T03:07:02.386Z,0.00
2022-12-29T03:08:02.332Z,0.00
2022-12-29T03:09:02.298Z,0.00
2022-12-29T03:10:02.311Z,0.00
2022-12-29T03:11:02.319Z,0.00
2022-12-29T03:12:02.268Z,0.00
2022-12-29T03:13:02.291Z,0.00
2022-12-29T03:14:02.246Z,0.00
2022-12-29T03:15:02.264Z,0.00
2022-12-29T03:16:02.218Z,0.00
2022-12-29T03:17:02.282Z,0.00
2022-12-29T03:18:02.229Z,0.00
2022-12-29T03:19:02.180Z,0.00
2022-12-29T03:20:02.186Z,0.00
2022-12-29T03:21:02.184Z,0.00
2022-12-29T03:22:02.172Z,0.00
2022-12-29T03:23:02.211Z,0.00
2022-12-29T03:24:02.126Z,0.00
2022-12-29T03:25:02.120Z,0.00
2022-12-29T03:26:02.133Z,0.00
2022-12-29T03:27:02.116Z,0.00
2022-12-29T03:28:02.086Z,0.00
2022-12-29T03:29:02.094Z,0.00
2022-12-29T03:30:02.071Z,0.00
2022-12-29T03:31:02.139Z,0.00
2022-12-29T03:32:02.051Z,0.00
2022-12-29T03:33:02.025Z,0.00
2022-12-29T03:34:02.052Z,0.00
2022-12-29T03:35:02.047Z,0.00
2022-12-29T03:36:02.017Z,0.00
2022-12-29T03:37:02.000Z,0.00
2022-12-29T03:38:01.974Z,0.00
2022-12-29T03:39:01.988Z,0.00
2022-12-29T03:40:01.962Z,0.00
2022-12-29T03:41:01.940Z,0.00
2022-12-29T03:42:01.938Z,0.00
2022-12-29T03:43:01.921Z,0.00
2022-12-29T03:44:01.965Z,0.00
2022-12-29T03:45:01.901Z,0.00
2022-12-29T03:46:01.947Z,0.00
2022-12-29T03:47:01.877Z,0.00
2022-12-29T03:48:01.872Z,0.00
2022-12-29T03:49:01.890Z,0.00
2022-12-29T03:50:01.850Z,0.00
2022-12-29T03:51:01.841Z,0.00
2022-12-29T03:52:01.823Z,0.00
2022-12-29T03:53:01.811Z,0.00
2022-12-29T03:54:01.812Z,0.00
2022-12-29T03:55:01.819Z,0.00
2022-12-29T03:56:01.768Z,0.00
2022-12-29T03:57:01.768Z,0.00
2022-12-29T03:58:01.748Z,0.00
2022-12-29T03:59:01.741Z,0.00
2022-12-29T04:00:01.732Z,0.00
2022-12-29T04:01:01.858Z,0.00
2022-12-29T04:02:01.803Z,0.00
2022-12-29T04:03:01.860Z,0.00
2022-12-29T04:04:01.701Z,0.00
2022-12-29T04:05:01.675Z,0.00
2022-12-29T04:06:01.662Z,0.00
2022-12-29T04:07:01.680Z,0.00
2022-12-29T04:08:01.641Z,0.00
2022-12-29T04:09:01.659Z,0.00
2022-12-29T04:10:01.624Z,0.00
2022-12-29T04:11:01.604Z,0.00
2022-12-29T04:12:01.593Z,0.00
2022-12-29T04:13:01.629Z,0.00
2022-12-29T04:14:01.577Z,0.00
2022-12-29T04:15:01.565Z,0.00
2022-12-29T04:16:01.590Z,0.00
2022-12-29T04:17:01.545Z,0.00
2022-12-29T04:18:01.527Z,0.00
2022-12-29T04:19:01.541Z,0.00
2022-12-29T04:20:01.500Z,0.00
2022-12-29T04:21:01.502Z,0.00
2022-12-29T04:22:01.496Z,0.00
2022-12-29T04:23:01.488Z,0.00
2022-12-29T04:24:01.523Z,0.00
2022-12-29T04:25:01.485Z,0.00
2022-12-29T04:26:01.441Z,0.00
2022-12-29T04:27:01.445Z,0.00
2022-12-29T04:28:01.410Z,0.00
2022-12-29T04:29:01.414Z,0.00
2022-12-29T04:30:01.388Z,0.00
2022-12-29T04:31:01.512Z,0.00
2022-12-29T04:32:01.397Z,0.00
2022-12-29T04:33:01.391Z,0.00
2022-12-29T04:34:01.348Z,0.00
2022-12-29T04:35:01.356Z,0.00
2022-12-29T04:36:01.335Z,0.00
2022-12-29T04:37:01.348Z,0.00
2022-12-29T04:38:01.300Z,0.00
2022-12-29T04:39:01.303Z,0.00
2022-12-29T04:40:01.278Z,0.00
2022-12-29T04:41:01.275Z,0.00
2022-12-29T04:42:01.294Z,0.00
2022-12-29T04:43:01.252Z,0.00
2022-12-29T04:44:01.232Z,0.00
2022-12-29T04:45:01.227Z,0.00
2022-12-29T04:46:01.286Z,0.00
2022-12-29T04:47:01.223Z,0.00
2022-12-29T04:48:01.198Z,0.00
2022-12-29T04:49:01.174Z,0.00
2022-12-29T04:50:01.207Z,0.00
2022-12-29T04:51:01.183Z,0.00
2022-12-29T04:52:01.195Z,0.00
2022-12-29T04:53:01.136Z,0.00
2022-12-29T04:54:01.153Z,0.00
2022-12-29T04:55:01.116Z,0.00
2022-12-29T04:56:01.101Z,0.00
2022-12-29T04:57:01.124Z,0.00
2022-12-29T04:58:01.077Z,0.00
2022-12-29T04:59:01.069Z,0.00
2022-12-29T05:00:01.065Z,0.00
2022-12-29T05:01:01.074Z,0.00
2022-12-29T05:02:01.186Z,0.00
2022-12-29T05:03:01.263Z,0.00
2022-12-29T05:04:01.066Z,0.00
2022-12-29T05:05:01.005Z,0.00
2022-12-29T05:06:00.988Z,0.00
2022-12-29T05:07:01.010Z,0.00
2022-12-29T05:08:00.969Z,0.00
2022-12-29T05:09:00.970Z,0.00
2022-12-29T05:10:00.944Z,0.00
2022-12-29T05:11:00.941Z,0.00
2022-12-29T05:12:00.977Z,0.00
2022-12-29T05:13:00.915Z,0.00
2022-12-29T05:14:00.900Z,0.00
2022-12-29T05:15:00.900Z,0.00
2022-12-29T05:16:00.966Z,0.00
2022-12-29T05:17:00.873Z,0.00
2022-12-29T05:18:00.890Z,0.00
2022-12-29T05:19:00.866Z,0.00
2022-12-29T05:20:00.846Z,0.00
2022-12-29T05:21:00.839Z,0.00
2022-12-29T05:22:00.813Z,0.00
2022-12-29T05:23:00.813Z,0.00
2022-12-29T05:24:00.837Z,0.00
2022-12-29T05:25:00.804Z,0.00
2022-12-29T05:26:00.767Z,0.00
2022-12-29T05:27:00.765Z,0.00
2022-12-29T05:28:00.748Z,0.00
2022-12-29T05:29:00.741Z,0.00
2022-12-29T05:30:00.768Z,0.00
2022-12-29T05:31:00.743Z,0.00
2022-12-29T05:32:00.726Z,0.00
2022-12-29T05:33:00.704Z,0.00
2022-12-29T05:34:00.682Z,0.00
2022-12-29T05:35:00.694Z,0.00
2022-12-29T05:36:01.116Z,0.00
2022-12-29T05:37:00.657Z,0.00
2022-12-29T05:38:00.637Z,0.00
2022-12-29T05:39:00.641Z,0.00
2022-12-29T05:40:00.613Z,0.00
2022-12-29T05:41:00.613Z,0.00
2022-12-29T05:42:00.668Z,0.00
2022-12-29T05:43:00.584Z,0.00
2022-12-29T05:44:00.595Z,0.00
2022-12-29T05:45:00.556Z,0.00
2022-12-29T05:46:00.561Z,0.00
2022-12-29T05:47:00.696Z,0.00
2022-12-29T05:48:00.565Z,0.00
2022-12-29T05:49:00.512Z,0.00
2022-12-29T05:50:00.526Z,0.00
2022-12-29T05:51:00.540Z,0.00
2022-12-29T05:52:00.509Z,0.00
2022-12-29T05:53:00.470Z,0.00
2022-12-29T05:54:00.489Z,0.00
2022-12-29T05:55:00.453Z,0.00
2022-12-29T05:56:00.457Z,0.00
2022-12-29T05:57:00.427Z,0.00
2022-12-29T05:58:00.436Z,0.00
2022-12-29T05:59:00.415Z,0.00
2022-12-29T06:00:00.471Z,0.00
2022-12-29T06:01:00.405Z,0.00
2022-12-29T06:02:00.668Z,0.00
2022-12-29T06:03:00.763Z,0.00
2022-12-29T06:04:00.629Z,0.00
2022-12-29T06:05:00.368Z,0.00
2022-12-29T06:06:00.339Z,0.00
2022-12-29T06:07:00.318Z,0.00
2022-12-29T06:08:00.310Z,0.00
2022-12-29T06:09:00.292Z,0.00
2022-12-29T06:10:00.296Z,0.00
2022-12-29T06:11:00.306Z,0.00
2022-12-29T06:12:00.261Z,0.00
2022-12-29T06:13:00.268Z,0.00
2022-12-29T06:14:00.254Z,0.00
2022-12-29T06:15:00.228Z,0.00
2022-12-29T06:16:00.301Z,0.00
2022-12-29T06:17:00.236Z,0.00
2022-12-29T06:18:00.193Z,0.00
2022-12-29T06:19:00.193Z,0.00
2022-12-29T06:20:00.202Z,0.00
2022-12-29T06:21:00.157Z,0.00
2022-12-29T06:22:00.162Z,0.00
2022-12-29T06:23:00.178Z,0.00
2022-12-29T06:24:00.138Z,0.00
2022-12-29T06:25:04.633Z,0.00
2022-12-29T06:26:00.108Z,0.00
2022-12-29T06:27:00.116Z,0.00
2022-12-29T06:28:00.117Z,0.00
2022-12-29T06:29:00.076Z,0.00
2022-12-29T06:30:00.086Z,0.00
2022-12-29T06:31:00.071Z,0.00
2022-12-29T06:32:00.156Z,0.00
2022-12-29T06:33:00.037Z,0.00
2022-12-29T06:34:04.991Z,0.00
2022-12-29T06:35:00.014Z,0.00
2022-12-29T06:35:59.992Z,0.00
2022-12-29T06:36:59.983Z,0.00
2022-12-29T06:37:59.978Z,0.00
2022-12-29T06:38:59.959Z,0.00
2022-12-29T06:40:00.172Z,0.00
2022-12-29T06:40:59.987Z,0.00
2022-12-29T06:41:59.926Z,0.00
2022-12-29T06:42:59.916Z,0.00
2022-12-29T06:43:59.905Z,0.00
2022-12-29T06:44:59.918Z,0.00
2022-12-29T06:45:59.967Z,0.00
2022-12-29T06:46:59.874Z,0.00
2022-12-29T06:47:59.865Z,0.00
2022-12-29T06:48:59.856Z,0.00
2022-12-29T06:49:59.838Z,0.00
2022-12-29T06:50:59.829Z,0.00
2022-12-29T06:51:59.837Z,0.00
2022-12-29T06:52:59.805Z,0.00
2022-12-29T06:53:59.792Z,0.00
2022-12-29T06:54:59.783Z,0.00
2022-12-29T06:55:59.773Z,0.00
2022-12-29T06:56:59.772Z,0.00
2022-12-29T06:57:59.784Z,0.00
2022-12-29T06:58:59.740Z,0.00
2022-12-29T06:59:59.729Z,0.00
2022-12-29T07:00:59.729Z,0.00
2022-12-29T07:01:59.953Z,0.00
2022-12-29T07:03:00.012Z,0.00
2022-12-29T07:03:59.713Z,0.00
2022-12-29T07:04:59.669Z,0.00
2022-12-29T07:05:59.687Z,0.00
2022-12-29T07:06:59.662Z,0.00
2022-12-29T07:07:59.638Z,0.00
2022-12-29T07:08:59.627Z,0.00
2022-12-29T07:09:59.640Z,0.00
2022-12-29T07:10:59.620Z,0.00
2022-12-29T07:11:59.600Z,0.00
2022-12-29T07:12:59.582Z,0.00
2022-12-29T07:14:02.154Z,0.00
2022-12-29T07:14:59.566Z,0.00
2022-12-29T07:15:59.583Z,0.00
2022-12-29T07:16:59.612Z,0.00
2022-12-29T07:17:59.525Z,0.00
2022-12-29T07:18:59.521Z,0.00
2022-12-29T07:19:59.512Z,0.00
2022-12-29T07:20:59.495Z,0.00
2022-12-29T07:21:59.519Z,0.00
2022-12-29T07:22:59.473Z,0.00
2022-12-29T07:23:59.466Z,0.00
2022-12-29T07:24:59.446Z,0.00
2022-12-29T07:25:59.433Z,0.00
2022-12-29T07:26:59.443Z,0.00
2022-12-29T07:27:59.450Z,0.00
2022-12-29T07:28:59.400Z,0.00
2022-12-29T07:29:59.393Z,0.00
2022-12-29T07:30:59.384Z,0.00
2022-12-29T07:31:59.420Z,0.00
2022-12-29T07:32:59.385Z,0.00
2022-12-29T07:33:59.343Z,0.00
2022-12-29T07:34:59.340Z,0.00
2022-12-29T07:35:59.330Z,0.00
2022-12-29T07:36:59.343Z,0.00
2022-12-29T07:37:59.373Z,0.00
2022-12-29T07:38:59.297Z,5.62
2022-12-29T07:39:59.280Z,5.62
2022-12-29T07:40:59.294Z,5.62
2022-12-29T07:42:04.533Z,5.62
2022-12-29T07:42:59.263Z,5.62
2022-12-29T07:43:59.273Z,5.62
2022-12-29T07:44:59.235Z,5.62
2022-12-29T07:45:59.398Z,5.62
2022-12-29T07:46:59.412Z,5.62
2022-12-29T07:47:59.192Z,5.62
2022-12-29T07:48:59.344Z,11.25
2022-12-29T07:49:59.203Z,11.25
2022-12-29T07:50:59.159Z,11.25
2022-12-29T07:51:59.146Z,11.25
2022-12-29T07:52:59.176Z,11.25
2022-12-29T07:53:59.134Z,11.25
2022-12-29T07:54:59.162Z,11.25
2022-12-29T07:55:59.114Z,11.25
2022-12-29T07:56:59.087Z,11.25
2022-12-29T07:57:59.144Z,11.25
2022-12-29T07:58:59.063Z,16.88
2022-12-29T07:59:59.069Z,16.88
2022-12-29T08:00:59.110Z,16.88
2022-12-29T08:01:59.208Z,16.88
2022-12-29T08:02:59.017Z,16.88
2022-12-29T08:03:59.059Z,16.88
2022-12-29T08:04:58.995Z,16.88
2022-12-29T08:05:58.991Z,16.88
2022-12-29T08:06:58.998Z,22.50
2022-12-29T08:07:58.966Z,22.50
2022-12-29T08:09:01.613Z,22.50
2022-12-29T08:09:58.954Z,22.50
2022-12-29T08:10:58.927Z,22.50
2022-12-29T08:11:58.963Z,22.50
2022-12-29T08:12:58.970Z,22.50
2022-12-29T08:13:58.943Z,28.12
2022-12-29T08:14:58.899Z,28.12
2022-12-29T08:15:58.978Z,28.12
2022-12-29T08:16:58.885Z,28.12
2022-12-29T08:17:58.857Z,28.12
2022-12-29T08:18:58.848Z,28.12
2022-12-29T08:19:58.834Z,33.75
2022-12-29T08:20:58.817Z,33.75
2022-12-29T08:21:58.835Z,33.75
2022-12-29T08:22:58.793Z,33.75
2022-12-29T08:23:58.789Z,33.75
2022-12-29T08:24:58.805Z,33.75
2022-12-29T08:25:58.762Z,39.38
2022-12-29T08:27:01.741Z,33.75
2022-12-29T08:27:58.754Z,39.38
2022-12-29T08:28:58.727Z,45.00
2022-12-29T08:29:58.720Z,45.00
2022-12-29T08:30:58.778Z,45.00
2022-12-29T08:31:58.700Z,50.62
2022-12-29T08:32:58.714Z,50.62
2022-12-29T08:33:58.696Z,50.62
2022-12-29T08:34:58.669Z,50.62
2022-12-29T08:35:58.654Z,50.62
2022-12-29T08:36:58.649Z,50.62
2022-12-29T08:37:58.637Z,50.62
2022-12-29T08:38:58.650Z,56.25
2022-12-29T08:39:58.612Z,56.25
2022-12-29T08:40:58.609Z,56.25
2022-12-29T08:41:58.587Z,50.62
2022-12-29T08:42:58.575Z,45.00
2022-12-29T08:43:58.566Z,45.00
2022-12-29T08:44:58.572Z,39.38
2022-12-29T08:45:58.568Z,39.38
2022-12-29T08:46:58.562Z,45.00
2022-12-29T08:47:58.533Z,50.62
2022-12-29T08:48:58.523Z,50.62
2022-12-29T08:49:58.508Z,56.25
2022-12-29T08:50:58.540Z,61.88
2022-12-29T08:51:58.482Z,61.88
2022-12-29T08:52:58.466Z,67.50
2022-12-29T08:53:58.467Z,67.50
2022-12-29T08:54:58.441Z,61.88
2022-12-29T08:56:04.270Z,73.12
2022-12-29T08:56:58.452Z,78.75
2022-12-29T08:57:58.411Z,78.75
2022-12-29T08:58:58.398Z,73.12
2022-12-29T08:59:58.402Z,73.12
2022-12-29T09:00:58.382Z,73.12
2022-12-29T09:01:58.457Z,73.12
2022-12-29T09:02:58.735Z,90.00
2022-12-29T09:04:16.105Z,90.00
2022-12-29T09:04:58.471Z,78.75
2022-12-29T09:05:58.321Z,78.75
2022-12-29T09:06:58.303Z,78.75
2022-12-29T09:07:58.311Z,123.75
2022-12-29T09:08:58.308Z,151.88
2022-12-29T09:09:58.275Z,213.75
2022-12-29T09:10:58.266Z,123.75
2022-12-29T09:11:58.260Z,151.88
2022-12-29T09:12:58.253Z,106.88
2022-12-29T09:13:58.282Z,112.50
2022-12-29T09:14:58.222Z,118.12
2022-12-29T09:15:58.288Z,90.00
2022-12-29T09:16:58.236Z,112.50
2022-12-29T09:17:58.223Z,112.50
2022-12-29T09:18:58.189Z,90.00
2022-12-29T09:19:58.262Z,84.38
2022-12-29T09:20:58.172Z,73.12
2022-12-29T09:21:58.158Z,84.38
2022-12-29T09:22:58.256Z,84.38
2022-12-29T09:23:58.135Z,84.38
2022-12-29T09:24:58.106Z,84.38
2022-12-29T09:25:59.072Z,90.00
2022-12-29T09:26:58.167Z,90.00
2022-12-29T09:27:58.110Z,90.00
2022-12-29T09:28:58.149Z,90.00
2022-12-29T09:29:58.054Z,84.38
2022-12-29T09:30:58.169Z,84.38
2022-12-29T09:31:58.082Z,78.75
2022-12-29T09:32:58.069Z,78.75
2022-12-29T09:33:58.026Z,84.38
2022-12-29T09:34:58.022Z,90.00
2022-12-29T09:35:58.036Z,78.75
2022-12-29T09:36:58.000Z,78.75
2022-12-29T09:37:57.999Z,73.12
2022-12-29T09:38:57.960Z,90.00
2022-12-29T09:39:57.977Z,90.00
2022-12-29T09:40:57.944Z,78.75
2022-12-29T09:41:57.974Z,95.62
2022-12-29T09:42:57.948Z,78.75
2022-12-29T09:43:58.391Z,73.12
2022-12-29T09:44:57.901Z,73.12
2022-12-29T09:45:57.884Z,73.12
2022-12-29T09:46:57.958Z,67.50
2022-12-29T09:47:57.868Z,67.50
2022-12-29T09:48:57.849Z,67.50
2022-12-29T09:49:57.904Z,67.50
2022-12-29T09:50:57.848Z,73.12
2022-12-29T09:51:57.833Z,73.12
2022-12-29T09:52:57.826Z,73.12
2022-12-29T09:53:57.825Z,67.50
2022-12-29T09:55:02.849Z,67.50
2022-12-29T09:55:57.868Z,61.88
2022-12-29T09:56:57.804Z,61.88
2022-12-29T09:57:57.766Z,61.88
2022-12-29T09:58:57.752Z,61.88
2022-12-29T09:59:57.769Z,67.50
2022-12-29T10:00:57.768Z,67.50
2022-12-29T10:01:58.038Z,73.12
2022-12-29T10:02:57.880Z,73.12
2022-12-29T10:03:57.714Z,73.12
2022-12-29T10:04:57.706Z,78.75
2022-12-29T10:05:57.653Z,73.12
2022-12-29T10:07:27.867Z,73.12
2022-12-29T10:07:57.730Z,73.12
2022-12-29T10:08:57.632Z,78.75
2022-12-29T10:09:57.706Z,84.38
2022-12-29T10:10:57.624Z,84.38
2022-12-29T10:11:57.590Z,84.38
2022-12-29T10:12:57.584Z,90.00
2022-12-29T10:13:57.641Z,84.38
2022-12-29T10:14:57.581Z,78.75
2022-12-29T10:15:57.665Z,78.75
2022-12-29T10:16:57.599Z,78.75
2022-12-29T10:17:57.517Z,84.38
2022-12-29T10:18:57.539Z,84.38
2022-12-29T10:19:58.090Z,84.38
2022-12-29T10:20:57.527Z,84.38
2022-12-29T10:21:57.510Z,78.75
2022-12-29T10:22:57.466Z,78.75
2022-12-29T10:23:57.478Z,84.38
2022-12-29T10:24:57.459Z,84.38
2022-12-29T10:25:57.492Z,84.38
2022-12-29T10:26:57.488Z,112.50
2022-12-29T10:27:57.448Z,90.00
2022-12-29T10:28:57.425Z,90.00
2022-12-29T10:29:57.391Z,90.00
2022-12-29T10:30:57.415Z,90.00
2022-12-29T10:31:57.492Z,90.00
2022-12-29T10:32:57.406Z,84.38
2022-12-29T10:33:57.355Z,78.75
2022-12-29T10:34:57.410Z,90.00
2022-12-29T10:35:57.324Z,101.25
2022-12-29T10:36:57.377Z,106.88
2022-12-29T10:37:57.390Z,112.50
2022-12-29T10:38:57.338Z,123.75
2022-12-29T10:39:57.331Z,135.00
2022-12-29T10:40:57.287Z,135.00
2022-12-29T10:41:57.285Z,140.62
2022-12-29T10:42:57.341Z,151.88
2022-12-29T10:43:57.225Z,157.50
2022-12-29T10:44:57.227Z,140.62
2022-12-29T10:45:57.251Z,118.12
2022-12-29T10:46:57.198Z,101.25
2022-12-29T10:47:57.192Z,95.62
2022-12-29T10:48:57.209Z,95.62
2022-12-29T10:49:57.162Z,101.25
2022-12-29T10:51:01.536Z,135.00
2022-12-29T10:51:57.140Z,416.25
2022-12-29T10:52:57.125Z,112.50
2022-12-29T10:53:57.123Z,90.00
2022-12-29T10:54:57.131Z,78.75
2022-12-29T10:55:57.103Z,78.75
2022-12-29T10:56:57.092Z,73.12
2022-12-29T10:57:57.077Z,90.00
2022-12-29T10:58:57.064Z,95.62
2022-12-29T10:59:57.085Z,95.62
2022-12-29T11:00:57.117Z,101.25
2022-12-29T11:01:57.177Z,78.75
2022-12-29T11:02:57.174Z,78.75
2022-12-29T11:03:57.017Z,73.12
2022-12-29T11:04:57.004Z,67.50
2022-12-29T11:05:57.016Z,67.50
2022-12-29T11:06:56.969Z,61.88
2022-12-29T11:07:56.961Z,61.88
2022-12-29T11:08:56.947Z,61.88
2022-12-29T11:09:56.941Z,67.50
2022-12-29T11:10:56.923Z,84.38
2022-12-29T11:11:56.939Z,78.75
2022-12-29T11:12:56.916Z,84.38
2022-12-29T11:13:56.894Z,90.00
2022-12-29T11:14:56.874Z,95.62
2022-12-29T11:15:56.872Z,106.88
2022-12-29T11:16:56.909Z,106.88
2022-12-29T11:17:56.848Z,112.50
2022-12-29T11:18:56.836Z,106.88
2022-12-29T11:19:56.835Z,101.25
2022-12-29T11:20:56.808Z,106.88
2022-12-29T11:21:56.804Z,101.25
2022-12-29T11:22:56.830Z,112.50
2022-12-29T11:23:56.780Z,118.12
2022-12-29T11:24:56.774Z,118.12
2022-12-29T11:25:56.752Z,112.50
2022-12-29T11:26:56.742Z,106.88
2022-12-29T11:27:56.737Z,101.25
2022-12-29T11:28:56.829Z,90.00
2022-12-29T11:29:56.711Z,90.00
2022-12-29T11:30:56.693Z,90.00
2022-12-29T11:31:56.776Z,90.00
2022-12-29T11:32:56.694Z,90.00
2022-12-29T11:33:56.670Z,95.62
2022-12-29T11:34:56.675Z,95.62
2022-12-29T11:35:56.646Z,90.00
2022-12-29T11:36:56.628Z,73.12
2022-12-29T11:37:56.626Z,61.88
2022-12-29T11:38:56.607Z,56.25
2022-12-29T11:39:56.622Z,73.12
2022-12-29T11:40:56.598Z,84.38
2022-12-29T11:41:56.580Z,101.25
2022-12-29T11:42:56.666Z,106.88
2022-12-29T11:43:56.555Z,101.25
2022-12-29T11:44:56.563Z,101.25
2022-12-29T11:45:56.571Z,95.62
2022-12-29T11:46:56.521Z,101.25
2022-12-29T11:47:56.528Z,129.38
2022-12-29T11:48:56.495Z,151.88
2022-12-29T11:49:56.490Z,241.88
2022-12-29T11:50:56.473Z,146.25
2022-12-29T11:51:56.473Z,129.38
2022-12-29T11:52:56.476Z,106.88
2022-12-29T11:53:56.446Z,101.25
2022-12-29T11:54:56.443Z,101.25
2022-12-29T11:55:56.415Z,101.25
2022-12-29T11:56:56.421Z,73.12
2022-12-29T11:57:56.414Z,73.12
2022-12-29T11:58:56.382Z,67.50
2022-12-29T11:59:56.530Z,135.00
2022-12-29T12:00:56.364Z,73.12
2022-12-29T12:01:56.547Z,129.38
2022-12-29T12:02:56.452Z,84.38
2022-12-29T12:03:56.373Z,106.88
2022-12-29T12:04:56.319Z,106.88
2022-12-29T12:05:56.301Z,90.00
2022-12-29T12:06:56.293Z,73.12
2022-12-29T12:07:56.304Z,67.50
2022-12-29T12:08:56.286Z,61.88
2022-12-29T12:10:00.209Z,67.50
2022-12-29T12:10:56.251Z,67.50
2022-12-29T12:11:56.238Z,67.50
2022-12-29T12:12:56.270Z,67.50
2022-12-29T12:13:56.215Z,67.50
2022-12-29T12:14:56.203Z,61.88
2022-12-29T12:15:57.267Z,61.88
2022-12-29T12:16:56.276Z,67.50
2022-12-29T12:17:56.193Z,67.50
2022-12-29T12:18:56.157Z,73.12
2022-12-29T12:19:56.156Z,78.75
2022-12-29T12:20:56.143Z,90.00
2022-12-29T12:21:56.117Z,151.88
2022-12-29T12:22:56.142Z,202.50
2022-12-29T12:23:56.098Z,191.25
2022-12-29T12:24:56.091Z,140.62
2022-12-29T12:25:56.073Z,118.12
2022-12-29T12:26:56.074Z,95.62
2022-12-29T12:27:56.083Z,101.25
2022-12-29T12:28:56.051Z,129.38
2022-12-29T12:29:56.194Z,129.38
2022-12-29T12:30:56.126Z,135.00
2022-12-29T12:31:56.014Z,118.12
2022-12-29T12:32:56.082Z,123.75
2022-12-29T12:33:55.991Z,123.75
2022-12-29T12:34:55.981Z,123.75
2022-12-29T12:35:55.958Z,191.25
2022-12-29T12:36:55.959Z,236.25
2022-12-29T12:37:55.959Z,365.62
2022-12-29T12:38:55.934Z,123.75
2022-12-29T12:39:55.935Z,270.00
2022-12-29T12:40:55.917Z,129.38
2022-12-29T12:41:55.895Z,106.88
2022-12-29T12:42:55.927Z,101.25
2022-12-29T12:43:55.876Z,90.00
2022-12-29T12:44:55.912Z,90.00
2022-12-29T12:45:55.879Z,365.62
2022-12-29T12:46:55.882Z,106.88
2022-12-29T12:47:55.833Z,101.25
2022-12-29T12:48:55.855Z,95.62
2022-12-29T12:49:55.878Z,95.62
2022-12-29T12:50:55.793Z,90.00
2022-12-29T12:51:59.669Z,90.00
2022-12-29T12:52:55.790Z,90.00
2022-12-29T12:53:55.877Z,95.62
2022-12-29T12:54:55.790Z,95.62
2022-12-29T12:55:55.747Z,101.25
2022-12-29T12:56:55.731Z,101.25
2022-12-29T12:57:55.723Z,112.50
2022-12-29T12:58:55.716Z,320.62
2022-12-29T12:59:55.693Z,180.00
2022-12-29T13:00:55.730Z,146.25
2022-12-29T13:01:55.808Z,225.00
2022-12-29T13:02:55.837Z,208.12
2022-12-29T13:03:55.699Z,129.38